Time;durP1;ratioP1;P1;durP2;ratioP2;P2;SDS_P1;SDS_P2;PMS_P1;PMS_P2;Temp;Humidity;BMP_temperature;BMP_pressure;BME280_temperature;BME280_humidity;BME280_pressure;Samples;Min_cycle;Max_cycle;Signal;HPM_P1;HPM_P2
2023/06/29 00:00:45;;;;;;;;;;;22.30;59.70;;;;;;5146731;27;19946;-58
2023/06/29 00:03:11;;;;;;;;;;;22.30;59.70;;;;;;5146391;27;20287;-58
2023/06/29 00:05:37;;;;;;;;;;;22.30;59.70;;;;;;5113482;28;19923;-58
2023/06/29 00:08:02;;;;;;;;;;;22.30;59.70;;;;;;5146709;27;20363;-58
2023/06/29 00:10:28;;;;;;;;;;;22.20;59.60;;;;;;5146455;27;19919;-58
2023/06/29 00:12:54;;;;;;;;;;;22.30;59.70;;;;;;5111935;28;19920;-59
2023/06/29 00:15:20;;;;;;;;;;;22.30;59.70;;;;;;5113114;28;19920;-59
2023/06/29 00:17:47;;;;;;;;;;;22.30;59.70;;;;;;5113424;28;19920;-60
2023/06/29 00:20:14;;;;;;;;;;;22.30;59.70;;;;;;5112112;28;20450;-58
2023/06/29 00:22:40;;;;;;;;;;;22.30;59.70;;;;;;5112983;28;20011;-58
2023/06/29 00:25:08;;;;;;;;;;;22.30;59.70;;;;;;5112979;28;20534;-58
2023/06/29 00:27:33;;;;;;;;;;;22.30;60.40;;;;;;5113454;27;20366;-58
2023/06/29 00:29:58;;;;;;;;;;;22.30;59.70;;;;;;5145968;27;19927;-58
2023/06/29 00:32:24;;;;;;;;;;;22.30;59.70;;;;;;5146076;27;20353;-59
2023/06/29 00:34:49;;;;;;;;;;;22.30;59.70;;;;;;5145996;27;19926;-60
2023/06/29 00:37:15;;;;;;;;;;;22.30;59.70;;;;;;5112859;28;19920;-58
2023/06/29 00:39:40;;;;;;;;;;;22.30;59.70;;;;;;5146030;27;19919;-60
2023/06/29 00:42:06;;;;;;;;;;;22.30;59.80;;;;;;5145812;27;20306;-58
2023/06/29 00:44:31;;;;;;;;;;;22.30;59.80;;;;;;5134257;27;19935;-59
2023/06/29 00:46:57;;;;;;;;;;;22.30;59.80;;;;;;5125499;28;19943;-58
2023/06/29 00:49:23;;;;;;;;;;;22.30;59.80;;;;;;5091381;28;20283;-58
2023/06/29 00:51:50;;;;;;;;;;;22.30;59.80;;;;;;5125488;28;19935;-59
2023/06/29 00:54:19;;;;;;;;;;;22.20;59.70;;;;;;5092471;28;19920;-58
2023/06/29 00:56:45;;;;;;;;;;;22.30;59.80;;;;;;5091041;28;19954;-58
2023/06/29 00:59:11;;;;;;;;;;;22.20;59.80;;;;;;5125470;28;19924;-58
2023/06/29 01:01:38;;;;;;;;;;;22.20;59.70;;;;;;5091000;28;20011;-58
2023/06/29 01:04:04;;;;;;;;;;;22.20;59.70;;;;;;5091087;28;20355;-58
2023/06/29 01:06:31;;;;;;;;;;;22.20;59.80;;;;;;5090927;28;19959;-58
2023/06/29 01:09:01;;;;;;;;;;;22.20;59.80;;;;;;5091315;28;20011;-58
2023/06/29 01:11:26;;;;;;;;;;;22.20;59.80;;;;;;5125218;28;19932;-58
2023/06/29 01:13:53;;;;;;;;;;;22.20;59.80;;;;;;5092417;28;19924;-59
2023/06/29 01:16:20;;;;;;;;;;;22.20;59.80;;;;;;5091176;28;19920;-58
2023/06/29 01:18:46;;;;;;;;;;;22.20;59.80;;;;;;5092161;28;19970;-58
2023/06/29 01:21:13;;;;;;;;;;;22.20;59.80;;;;;;5092123;28;20059;-58
2023/06/29 01:23:39;;;;;;;;;;;22.20;59.90;;;;;;5090783;28;19924;-58
2023/06/29 01:26:05;;;;;;;;;;;22.20;59.80;;;;;;5091998;28;20374;-60
2023/06/29 01:28:32;;;;;;;;;;;22.30;59.90;;;;;;5091140;28;19928;-60
2023/06/29 01:31:02;;;;;;;;;;;22.20;59.80;;;;;;5092025;28;19982;-58
2023/06/29 01:33:28;;;;;;;;;;;22.20;59.90;;;;;;5090701;28;19920;-58
2023/06/29 01:35:57;;;;;;;;;;;22.20;59.90;;;;;;5091021;28;19920;-58
2023/06/29 01:38:26;;;;;;;;;;;22.20;59.90;;;;;;5091901;28;19924;-58
2023/06/29 01:40:52;;;;;;;;;;;22.20;59.90;;;;;;5091943;28;19956;-58
2023/06/29 01:43:18;;;;;;;;;;;22.20;59.90;;;;;;5090182;28;19970;-59
2023/06/29 01:45:45;;;;;;;;;;;22.20;59.90;;;;;;5124826;28;19926;-58
2023/06/29 01:48:12;;;;;;;;;;;22.20;59.90;;;;;;5090551;28;19973;-58
2023/06/29 01:50:37;;;;;;;;;;;22.20;59.90;;;;;;5091714;28;19920;-59
2023/06/29 01:53:03;;;;;;;;;;;22.20;59.90;;;;;;5095478;28;19920;-58
2023/06/29 01:55:29;;;;;;;;;;;22.20;59.90;;;;;;5095489;28;19927;-58
2023/06/29 01:57:54;;;;;;;;;;;22.20;59.90;;;;;;5094363;28;19920;-60
2023/06/29 02:00:20;;;;;;;;;;;22.20;59.90;;;;;;5128302;27;19949;-58
2023/06/29 02:02:46;;;;;;;;;;;22.20;60.00;;;;;;5095434;28;20406;-58
2023/06/29 02:05:12;;;;;;;;;;;22.20;59.90;;;;;;5095448;28;19920;-58
2023/06/29 02:07:37;;;;;;;;;;;22.20;60.00;;;;;;5094240;28;19926;-58
2023/06/29 02:10:03;;;;;;;;;;;22.20;59.90;;;;;;5093973;28;19943;-59
2023/06/29 02:12:29;;;;;;;;;;;22.20;60.00;;;;;;5127917;27;19920;-58
2023/06/29 02:14:54;;;;;;;;;;;22.20;60.00;;;;;;5093871;28;20374;-59
2023/06/29 02:17:20;;;;;;;;;;;22.20;60.00;;;;;;5127934;27;19920;-58
2023/06/29 02:19:45;;;;;;;;;;;22.10;59.90;;;;;;5094980;28;19924;-58
2023/06/29 02:22:11;;;;;;;;;;;22.10;59.90;;;;;;5093747;28;19985;-60
2023/06/29 02:24:37;;;;;;;;;;;22.10;59.90;;;;;;5094834;28;19924;-58
2023/06/29 02:27:02;;;;;;;;;;;22.10;59.90;;;;;;5127641;27;19971;-60
2023/06/29 02:29:28;;;;;;;;;;;22.10;60.00;;;;;;5128004;27;19920;-59
2023/06/29 02:31:53;;;;;;;;;;;22.10;60.00;;;;;;5094998;28;19920;-58
2023/06/29 02:34:19;;;;;;;;;;;22.10;60.00;;;;;;5093440;28;19920;-59
2023/06/29 02:36:44;;;;;;;;;;;22.10;60.00;;;;;;5093441;28;19958;-59
2023/06/29 02:39:10;;;;;;;;;;;22.10;60.00;;;;;;5093309;28;19958;-58
2023/06/29 02:41:35;;;;;;;;;;;22.10;60.00;;;;;;5093640;28;19958;-58
2023/06/29 02:44:01;;;;;;;;;;;22.10;60.00;;;;;;5094039;28;19924;-60
2023/06/29 02:46:26;;;;;;;;;;;22.10;60.00;;;;;;5127298;27;19920;-58
2023/06/29 02:48:52;;;;;;;;;;;22.10;60.00;;;;;;5093372;28;19924;-59
2023/06/29 02:51:17;;;;;;;;;;;22.10;60.00;;;;;;5094553;28;19920;-58
2023/06/29 02:53:42;;;;;;;;;;;22.10;60.00;;;;;;5094373;28;19921;-58
2023/06/29 02:56:08;;;;;;;;;;;22.10;60.00;;;;;;5093401;28;19920;-58
2023/06/29 02:58:33;;;;;;;;;;;22.10;60.00;;;;;;5127450;27;19924;-58
2023/06/29 03:00:59;;;;;;;;;;;22.10;60.00;;;;;;5094361;28;20006;-58
2023/06/29 03:03:24;;;;;;;;;;;22.10;60.00;;;;;;5092998;28;19924;-58
2023/06/29 03:05:50;;;;;;;;;;;22.10;60.00;;;;;;5094137;28;19920;-58
2023/06/29 03:08:15;;;;;;;;;;;22.10;60.00;;;;;;5127193;27;20409;-58
2023/06/29 03:10:41;;;;;;;;;;;22.10;60.00;;;;;;5093002;28;19920;-58
2023/06/29 03:13:06;;;;;;;;;;;22.10;60.00;;;;;;5092752;28;20387;-58
2023/06/29 03:15:32;;;;;;;;;;;22.10;60.00;;;;;;5093773;28;19975;-59
2023/06/29 03:17:57;;;;;;;;;;;22.10;60.10;;;;;;5092709;28;20379;-58
2023/06/29 03:20:23;;;;;;;;;;;22.10;60.00;;;;;;5093797;28;19920;-58
2023/06/29 03:22:48;;;;;;;;;;;22.10;60.00;;;;;;5092443;28;19978;-58
2023/06/29 03:25:14;;;;;;;;;;;22.10;60.10;;;;;;5093606;28;19946;-59
2023/06/29 03:27:39;;;;;;;;;;;22.10;60.10;;;;;;5093762;28;19926;-59
2023/06/29 03:30:05;;;;;;;;;;;22.10;60.10;;;;;;5092374;28;20197;-60
2023/06/29 03:32:31;;;;;;;;;;;22.10;60.10;;;;;;5093663;28;20367;-58
2023/06/29 03:34:56;;;;;;;;;;;22.10;60.10;;;;;;5092621;28;20057;-58
2023/06/29 03:37:22;;;;;;;;;;;22.10;60.10;;;;;;5092481;28;19924;-59
2023/06/29 03:39:47;;;;;;;;;;;22.10;60.10;;;;;;5092524;28;19924;-58
2023/06/29 03:42:13;;;;;;;;;;;22.10;60.10;;;;;;5091932;28;20329;-57
2023/06/29 03:44:39;;;;;;;;;;;22.10;60.10;;;;;;5091819;28;19967;-59
2023/06/29 03:47:06;;;;;;;;;;;22.10;60.90;;;;;;5091964;28;20447;-58
2023/06/29 03:49:32;;;;;;;;;;;22.10;60.10;;;;;;5092016;28;19974;-58
2023/06/29 03:51:57;;;;;;;;;;;22.10;60.20;;;;;;5093235;28;19960;-58
2023/06/29 03:54:22;;;;;;;;;;;22.10;60.20;;;;;;5093236;28;19920;-58
2023/06/29 03:56:48;;;;;;;;;;;22.10;60.20;;;;;;5091955;28;20337;-59
2023/06/29 03:59:13;;;;;;;;;;;22.10;60.20;;;;;;5146331;27;19919;-58
2023/06/29 04:01:39;;;;;;;;;;;22.10;60.20;;;;;;5113269;28;20428;-58
2023/06/29 04:04:04;;;;;;;;;;;22.10;60.20;;;;;;5113576;28;19924;-58
2023/06/29 04:06:30;;;;;;;;;;;22.10;60.20;;;;;;5113382;28;20409;-58
2023/06/29 04:08:55;;;;;;;;;;;22.10;60.20;;;;;;5112404;28;19920;-59
2023/06/29 04:11:21;;;;;;;;;;;22.10;60.20;;;;;;5113227;28;19935;-59
2023/06/29 04:13:46;;;;;;;;;;;22.00;60.20;;;;;;5146238;27;19963;-58
2023/06/29 04:16:13;;;;;;;;;;;22.10;60.30;;;;;;5146514;27;20378;-60
2023/06/29 04:18:38;;;;;;;;;;;22.00;60.20;;;;;;5113115;28;19920;-60
2023/06/29 04:21:04;;;;;;;;;;;22.10;60.30;;;;;;5146498;27;20286;-58
2023/06/29 04:23:29;;;;;;;;;;;22.10;60.30;;;;;;5145259;27;19998;-58
2023/06/29 04:25:55;;;;;;;;;;;22.10;60.30;;;;;;5112818;28;19963;-58
2023/06/29 04:28:20;;;;;;;;;;;22.10;60.30;;;;;;5112942;28;19920;-58
2023/06/29 04:30:46;;;;;;;;;;;22.10;60.30;;;;;;5146352;27;19919;-58
2023/06/29 04:33:11;;;;;;;;;;;22.10;60.30;;;;;;5111539;28;20019;-59
2023/06/29 04:35:44;;;;;;;;;;;22.10;60.30;;;;;;5146303;27;19919;-58
2023/06/29 04:38:10;;;;;;;;;;;22.10;60.30;;;;;;5112786;28;19919;-58
2023/06/29 04:40:36;;;;;;;;;;;22.10;60.30;;;;;;5113067;28;19926;-58
2023/06/29 04:43:02;;;;;;;;;;;22.10;60.30;;;;;;5112517;28;19923;-58
2023/06/29 04:45:28;;;;;;;;;;;22.00;60.20;;;;;;5093871;28;19924;-58
2023/06/29 04:47:56;;;;;;;;;;;22.10;60.30;;;;;;5092312;28;19928;-58
2023/06/29 04:50:25;;;;;;;;;;;22.10;60.30;;;;;;5125275;28;19920;-58
2023/06/29 04:52:52;;;;;;;;;;;22.10;60.30;;;;;;5091108;28;20015;-58
2023/06/29 04:55:18;;;;;;;;;;;22.10;60.30;;;;;;5091539;28;19971;-59
2023/06/29 04:57:43;;;;;;;;;;;22.10;60.30;;;;;;5091039;28;20356;-60
2023/06/29 05:00:11;;;;;;;;;;;22.10;60.30;;;;;;5092430;28;19946;-58
2023/06/29 05:02:36;;;;;;;;;;;22.10;60.30;;;;;;5092233;28;19926;-58
2023/06/29 05:05:02;;;;;;;;;;;22.10;60.30;;;;;;5090977;28;20470;-58
2023/06/29 05:07:27;;;;;;;;;;;22.10;60.30;;;;;;5091290;28;19966;-58
2023/06/29 05:09:53;;;;;;;;;;;22.10;60.30;;;;;;5090899;28;19920;-60
2023/06/29 05:12:18;;;;;;;;;;;22.10;60.30;;;;;;5091277;28;19979;-58
2023/06/29 05:14:44;;;;;;;;;;;22.10;61.10;;;;;;5125233;28;20359;-58
2023/06/29 05:17:09;;;;;;;;;;;22.10;60.30;;;;;;5090838;28;19920;-58
2023/06/29 05:19:36;;;;;;;;;;;22.10;60.30;;;;;;5091127;28;19920;-59
2023/06/29 05:22:02;;;;;;;;;;;22.10;60.40;;;;;;5125073;28;19934;-58
2023/06/29 05:24:29;;;;;;;;;;;22.10;60.30;;;;;;5090785;28;19927;-58
2023/06/29 05:26:54;;;;;;;;;;;22.10;60.30;;;;;;5094190;28;19924;-59
2023/06/29 05:29:20;;;;;;;;;;;22.10;60.30;;;;;;5099072;28;19970;-60
2023/06/29 05:31:45;;;;;;;;;;;22.10;60.40;;;;;;5093151;28;19920;-60
2023/06/29 05:34:11;;;;;;;;;;;22.10;60.80;;;;;;5127255;27;19920;-59
2023/06/29 05:36:36;;;;;;;;;;;22.10;60.90;;;;;;5107708;28;19919;-60
2023/06/29 05:39:03;;;;;;;;;;;22.10;61.40;;;;;;5102162;28;19930;-61
2023/06/29 05:41:29;;;;;;;;;;;22.10;61.60;;;;;;5113416;28;19919;-63
2023/06/29 05:43:54;;;;;;;;;;;22.10;61.90;;;;;;5107256;28;19924;-60
2023/06/29 05:46:21;;;;;;;;;;;22.10;62.40;;;;;;5083552;28;20011;-60
2023/06/29 05:48:46;;;;;;;;;;;22.10;62.50;;;;;;5081836;28;19920;-59
2023/06/29 05:51:12;;;;;;;;;;;22.10;62.50;;;;;;5094605;28;20352;-59
2023/06/29 05:53:37;;;;;;;;;;;22.20;62.70;;;;;;5092787;28;20239;-59
2023/06/29 05:56:03;;;;;;;;;;;22.20;63.00;;;;;;5098520;28;20467;-61
2023/06/29 05:58:28;;;;;;;;;;;22.20;63.10;;;;;;5092230;28;19966;-60
2023/06/29 06:00:54;;;;;;;;;;;22.20;63.50;;;;;;5080842;28;20371;-65
2023/06/29 06:03:20;;;;;;;;;;;22.20;63.60;;;;;;5087008;28;19928;-60
2023/06/29 06:05:45;;;;;;;;;;;22.20;64.30;;;;;;5092498;28;20336;-60
2023/06/29 06:08:11;;;;;;;;;;;22.20;64.10;;;;;;5093051;28;20011;-58
2023/06/29 06:10:37;;;;;;;;;;;22.30;64.10;;;;;;5098697;28;19931;-59
2023/06/29 06:13:04;;;;;;;;;;;22.20;64.10;;;;;;5095785;28;19924;-61
2023/06/29 06:15:29;;;;;;;;;;;22.30;64.20;;;;;;5099410;28;19924;-60
2023/06/29 06:17:55;;;;;;;;;;;22.30;64.00;;;;;;5095675;28;19920;-60
2023/06/29 06:20:20;;;;;;;;;;;22.30;63.70;;;;;;5093326;28;19924;-60
2023/06/29 06:22:46;;;;;;;;;;;22.30;63.70;;;;;;5092202;28;20011;-59
2023/06/29 06:25:14;;;;;;;;;;;22.30;64.10;;;;;;5101092;28;19939;-58
2023/06/29 06:27:40;;;;;;;;;;;22.30;64.20;;;;;;5098355;28;19955;-59
2023/06/29 06:30:06;;;;;;;;;;;22.30;64.20;;;;;;5095995;28;20432;-59
2023/06/29 06:32:32;;;;;;;;;;;22.30;64.20;;;;;;5089013;28;19928;-60
2023/06/29 06:34:57;;;;;;;;;;;22.30;64.00;;;;;;5095049;28;20011;-59
2023/06/29 06:37:23;;;;;;;;;;;22.30;64.10;;;;;;5072721;28;19924;-58
2023/06/29 06:39:49;;;;;;;;;;;22.40;64.30;;;;;;5108751;27;20363;-58
2023/06/29 06:42:14;;;;;;;;;;;22.40;64.50;;;;;;5072248;28;19924;-59
2023/06/29 06:44:48;;;;;;;;;;;22.30;64.30;;;;;;5078962;28;19954;-60
2023/06/29 06:47:14;;;;;;;;;;;22.40;64.40;;;;;;5106163;27;20893;-59
2023/06/29 06:49:40;;;;;;;;;;;22.30;64.60;;;;;;5081282;28;20034;-57
2023/06/29 06:52:06;;;;;;;;;;;22.40;64.90;;;;;;5074715;28;19920;-60
2023/06/29 06:54:31;;;;;;;;;;;22.40;65.40;;;;;;5074860;28;19957;-58
2023/06/29 06:56:56;;;;;;;;;;;22.40;65.40;;;;;;5078376;28;19924;-59
2023/06/29 06:59:22;;;;;;;;;;;22.40;65.90;;;;;;5077807;28;20368;-58
2023/06/29 07:01:47;;;;;;;;;;;22.40;65.80;;;;;;5074033;28;19928;-58
2023/06/29 07:04:13;;;;;;;;;;;22.40;65.60;;;;;;5110904;27;19970;-59
2023/06/29 07:06:38;;;;;;;;;;;22.50;65.50;;;;;;5076510;28;19924;-61
2023/06/29 07:09:04;;;;;;;;;;;22.40;65.50;;;;;;5071570;28;19924;-60
2023/06/29 07:11:30;;;;;;;;;;;22.40;65.60;;;;;;5075345;28;19959;-59
2023/06/29 07:13:55;;;;;;;;;;;22.50;65.50;;;;;;5072624;28;19963;-58
2023/06/29 07:16:22;;;;;;;;;;;22.50;65.50;;;;;;5107063;27;19931;-59
2023/06/29 07:19:01;;;;;;;;;;;22.50;65.40;;;;;;5107040;27;19931;-57
2023/06/29 07:21:27;;;;;;;;;;;22.50;65.20;;;;;;5106197;27;20111;-58
2023/06/29 07:23:53;;;;;;;;;;;22.50;65.20;;;;;;5075579;28;20299;-58
2023/06/29 07:26:18;;;;;;;;;;;22.50;65.00;;;;;;5076267;28;19935;-60
2023/06/29 07:28:44;;;;;;;;;;;22.50;64.90;;;;;;5076195;28;19928;-59
2023/06/29 07:31:10;;;;;;;;;;;22.50;65.10;;;;;;5072189;28;20014;-58
2023/06/29 07:33:36;;;;;;;;;;;22.50;65.10;;;;;;5073035;28;20298;-58
2023/06/29 07:36:01;;;;;;;;;;;22.50;64.80;;;;;;5074604;28;19927;-58
2023/06/29 07:38:27;;;;;;;;;;;22.50;64.80;;;;;;5073066;28;20225;-58
2023/06/29 07:40:52;;;;;;;;;;;22.50;64.90;;;;;;5072470;28;19920;-58
2023/06/29 07:43:18;;;;;;;;;;;22.50;64.60;;;;;;5071193;28;19942;-59
2023/06/29 07:45:43;;;;;;;;;;;22.60;64.80;;;;;;5072087;28;20302;-58
2023/06/29 07:48:09;;;;;;;;;;;22.60;64.70;;;;;;5069677;28;20243;-58
2023/06/29 07:50:34;;;;;;;;;;;22.50;64.50;;;;;;5071560;28;20116;-58
2023/06/29 07:53:00;;;;;;;;;;;22.60;64.60;;;;;;5106314;27;19921;-58
2023/06/29 07:55:25;;;;;;;;;;;22.60;64.50;;;;;;5070911;28;19927;-58
2023/06/29 07:57:51;;;;;;;;;;;22.60;64.30;;;;;;5109172;27;19928;-58
2023/06/29 08:00:17;;;;;;;;;;;22.60;64.50;;;;;;5072408;28;19924;-58
2023/06/29 08:02:42;;;;;;;;;;;22.60;64.60;;;;;;5068652;28;19934;-59
2023/06/29 08:05:08;;;;;;;;;;;22.60;64.60;;;;;;5069754;28;19928;-58
2023/06/29 08:07:33;;;;;;;;;;;22.60;64.30;;;;;;5068489;28;19950;-60
2023/06/29 08:09:59;;;;;;;;;;;22.60;64.00;;;;;;5069675;28;19932;-59
2023/06/29 08:12:25;;;;;;;;;;;22.60;63.90;;;;;;5068982;28;19936;-58
2023/06/29 08:14:50;;;;;;;;;;;22.60;63.70;;;;;;5066469;28;20430;-58
2023/06/29 08:17:16;;;;;;;;;;;22.60;63.70;;;;;;5102012;27;19920;-59
2023/06/29 08:19:41;;;;;;;;;;;22.60;63.70;;;;;;5072152;28;20429;-59
2023/06/29 08:22:07;;;;;;;;;;;22.60;63.60;;;;;;5071473;28;19967;-59
2023/06/29 08:24:32;;;;;;;;;;;22.60;63.60;;;;;;5070882;28;19938;-59
2023/06/29 08:26:58;;;;;;;;;;;22.60;63.40;;;;;;5104560;27;20388;-59
2023/06/29 08:29:23;;;;;;;;;;;22.60;63.40;;;;;;5103736;27;19924;-59
2023/06/29 08:31:49;;;;;;;;;;;22.70;63.10;;;;;;5070035;28;19920;-58
2023/06/29 08:34:14;;;;;;;;;;;22.60;63.20;;;;;;5073093;28;19938;-59
2023/06/29 08:36:40;;;;;;;;;;;22.60;63.30;;;;;;5068590;28;20017;-59
2023/06/29 08:39:05;;;;;;;;;;;22.60;63.20;;;;;;5070347;28;20379;-58
2023/06/29 08:41:31;;;;;;;;;;;22.70;63.20;;;;;;5069494;28;19924;-58
2023/06/29 08:43:57;;;;;;;;;;;22.70;63.10;;;;;;5071562;28;19931;-58
2023/06/29 08:46:22;;;;;;;;;;;22.70;63.10;;;;;;5066338;28;19950;-58
2023/06/29 08:48:48;;;;;;;;;;;22.70;63.00;;;;;;5062788;28;19924;-59
2023/06/29 08:51:14;;;;;;;;;;;22.70;63.00;;;;;;5061745;28;19935;-59
2023/06/29 08:53:40;;;;;;;;;;;22.70;63.40;;;;;;5067800;28;19977;-58
2023/06/29 08:56:07;;;;;;;;;;;22.70;63.30;;;;;;5066284;28;19928;-58
2023/06/29 08:58:32;;;;;;;;;;;22.80;63.80;;;;;;5065822;28;20529;-58
2023/06/29 09:00:59;;;;;;;;;;;22.80;63.80;;;;;;5070760;28;19989;-59
2023/06/29 09:03:26;;;;;;;;;;;22.70;63.90;;;;;;5072409;28;21597;-58
2023/06/29 09:05:54;;;;;;;;;;;22.80;64.20;;;;;;5073888;28;19928;-59
2023/06/29 09:08:20;;;;;;;;;;;22.80;64.20;;;;;;5074164;28;19969;-59
2023/06/29 09:10:46;;;;;;;;;;;22.80;64.80;;;;;;5109088;27;20410;-59
2023/06/29 09:13:12;;;;;;;;;;;22.80;64.90;;;;;;5104212;27;20203;-59
2023/06/29 09:15:39;;;;;;;;;;;22.80;65.50;;;;;;5069991;28;20240;-59
2023/06/29 09:18:05;;;;;;;;;;;22.80;65.40;;;;;;5069044;28;19920;-58
2023/06/29 09:20:34;;;;;;;;;;;22.80;65.40;;;;;;5102657;27;19920;-58
2023/06/29 09:23:01;;;;;;;;;;;22.90;65.40;;;;;;5069959;28;20299;-58
2023/06/29 09:25:26;;;;;;;;;;;22.90;65.50;;;;;;5071436;28;19920;-58
2023/06/29 09:28:00;;;;;;;;;;;22.90;65.50;;;;;;5068554;28;19959;-58
2023/06/29 09:30:26;;;;;;;;;;;22.90;65.50;;;;;;5072762;28;19968;-59
2023/06/29 09:32:52;;;;;;;;;;;22.90;65.40;;;;;;5073618;28;20469;-59
2023/06/29 09:35:21;;;;;;;;;;;22.90;65.50;;;;;;5073808;28;20026;-59
2023/06/29 09:37:48;;;;;;;;;;;22.90;65.80;;;;;;5072672;28;20383;-58
2023/06/29 09:40:14;;;;;;;;;;;22.90;65.90;;;;;;5076217;28;20259;-58
2023/06/29 09:42:40;;;;;;;;;;;22.90;66.00;;;;;;5072235;28;19924;-58
2023/06/29 09:45:11;;;;;;;;;;;22.90;66.20;;;;;;5072964;28;19955;-58
2023/06/29 09:47:39;;;;;;;;;;;22.90;65.80;;;;;;5072585;28;20359;-58
2023/06/29 09:50:15;;;;;;;;;;;22.90;65.70;;;;;;5073769;28;20315;-59
2023/06/29 09:52:50;;;;;;;;;;;23.00;65.60;;;;;;5071870;28;20657;-59
2023/06/29 09:55:16;;;;;;;;;;;23.00;65.60;;;;;;5072297;28;20034;-59
2023/06/29 09:57:42;;;;;;;;;;;23.00;65.60;;;;;;5108749;27;19924;-59
2023/06/29 10:00:11;;;;;;;;;;;23.00;65.40;;;;;;5069345;28;20329;-59
2023/06/29 10:02:37;;;;;;;;;;;22.90;65.40;;;;;;5074635;28;19935;-58
2023/06/29 10:05:03;;;;;;;;;;;23.00;65.30;;;;;;5068363;28;19936;-60
2023/06/29 10:07:28;;;;;;;;;;;23.00;65.50;;;;;;5075463;28;19928;-61
2023/06/29 10:09:54;;;;;;;;;;;23.00;65.40;;;;;;5070254;28;19956;-59
2023/06/29 10:12:22;;;;;;;;;;;23.00;65.60;;;;;;5105390;27;20196;-60
2023/06/29 10:14:48;;;;;;;;;;;23.00;65.60;;;;;;5068995;28;19924;-66
2023/06/29 10:17:19;;;;;;;;;;;23.00;65.60;;;;;;5102144;27;20028;-59
2023/06/29 10:19:45;;;;;;;;;;;23.00;65.50;;;;;;5065981;28;20066;-59
2023/06/29 10:22:13;;;;;;;;;;;23.00;65.10;;;;;;5070005;28;19924;-59
2023/06/29 10:24:41;;;;;;;;;;;23.00;65.30;;;;;;5076650;28;20335;-59
2023/06/29 10:27:07;;;;;;;;;;;23.00;65.30;;;;;;5072488;28;19920;-59
2023/06/29 10:29:50;;;;;;;;;;;23.10;65.40;;;;;;5069250;28;19924;-63
2023/06/29 10:35:12;;;;;;;;;;;23.10;65.40;;;;;;5068027;28;20358;-59
2023/06/29 10:37:40;;;;;;;;;;;23.10;65.40;;;;;;5067104;28;19928;-58
2023/06/29 10:42:54;;;;;;;;;;;23.10;65.50;;;;;;5073739;27;19920;-58
2023/06/29 10:48:01;;;;;;;;;;;23.10;65.60;;;;;;5086314;27;19920;-58
2023/06/29 10:50:43;;;;;;;;;;;23.10;65.60;;;;;;5071669;28;19924;-60
2023/06/29 10:53:10;;;;;;;;;;;23.10;65.60;;;;;;5069266;28;20309;-58
2023/06/29 10:55:38;;;;;;;;;;;23.10;65.90;;;;;;5069316;28;20105;-58
2023/06/29 10:58:12;;;;;;;;;;;23.10;65.80;;;;;;5067110;28;20670;-58
2023/06/29 11:00:38;;;;;;;;;;;23.10;66.20;;;;;;5086258;28;19921;-58
2023/06/29 11:03:03;;;;;;;;;;;23.10;66.20;;;;;;5085391;28;19977;-58
2023/06/29 11:05:32;;;;;;;;;;;23.10;66.20;;;;;;5062988;28;20356;-58
2023/06/29 11:07:57;;;;;;;;;;;23.20;66.20;;;;;;5086210;28;19924;-59
2023/06/29 11:10:23;;;;;;;;;;;23.20;66.00;;;;;;5070558;28;19929;-61
2023/06/29 11:12:50;;;;;;;;;;;23.20;66.00;;;;;;5066767;28;20359;-58
2023/06/29 11:15:17;;;;;;;;;;;23.20;66.20;;;;;;5069964;28;20251;-60
2023/06/29 11:17:43;;;;;;;;;;;23.20;66.50;;;;;;5067481;28;19951;-60
2023/06/29 11:20:13;;;;;;;;;;;23.20;66.40;;;;;;5064643;28;20318;-59
2023/06/29 11:22:39;;;;;;;;;;;23.30;66.70;;;;;;5064336;28;19978;-59
2023/06/29 11:25:05;;;;;;;;;;;23.30;66.60;;;;;;5066381;28;19931;-58
2023/06/29 11:27:31;;;;;;;;;;;23.30;66.70;;;;;;5064994;28;19928;-58
2023/06/29 11:29:57;;;;;;;;;;;23.30;66.50;;;;;;5080921;28;19925;-58
2023/06/29 11:32:24;;;;;;;;;;;23.30;66.30;;;;;;5066026;28;20304;-60
2023/06/29 11:35:06;;;;;;;;;;;23.40;66.30;;;;;;5075215;28;20083;-59
2023/06/29 11:37:35;;;;;;;;;;;23.40;66.10;;;;;;5059281;28;20311;-58
2023/06/29 11:40:07;;;;;;;;;;;23.40;66.20;;;;;;5067079;28;19963;-58
2023/06/29 11:42:34;;;;;;;;;;;23.40;66.00;;;;;;5064956;28;19998;-58
2023/06/29 11:45:02;;;;;;;;;;;23.40;65.90;;;;;;5067551;28;20670;-59
2023/06/29 11:47:28;;;;;;;;;;;23.40;65.80;;;;;;5076780;28;20430;-58
2023/06/29 11:49:57;;;;;;;;;;;23.40;65.70;;;;;;5069393;28;19924;-57
2023/06/29 11:52:23;;;;;;;;;;;23.40;65.70;;;;;;5072344;28;20248;-58
2023/06/29 11:54:48;;;;;;;;;;;23.40;65.70;;;;;;5058129;28;20224;-58
2023/06/29 11:57:17;;;;;;;;;;;23.40;65.70;;;;;;5058785;28;20131;-58
2023/06/29 11:59:44;;;;;;;;;;;23.40;65.50;;;;;;5067474;28;19971;-58
2023/06/29 12:02:10;;;;;;;;;;;23.50;65.50;;;;;;5049176;28;20282;-58
2023/06/29 12:04:36;;;;;;;;;;;23.40;65.30;;;;;;5048355;28;20344;-59
2023/06/29 12:07:01;;;;;;;;;;;23.40;65.20;;;;;;5048023;28;20271;-58
2023/06/29 12:09:27;;;;;;;;;;;23.50;65.30;;;;;;5050881;28;19983;-58
2023/06/29 12:12:08;;;;;;;;;;;23.50;65.30;;;;;;5066071;28;20039;-58
2023/06/29 12:14:34;;;;;;;;;;;23.40;65.20;;;;;;5052162;28;20028;-58
2023/06/29 12:17:00;;;;;;;;;;;23.40;65.10;;;;;;5055798;28;20456;-58
2023/06/29 12:19:26;;;;;;;;;;;23.40;65.00;;;;;;5051584;28;19924;-62
2023/06/29 12:21:51;;;;;;;;;;;23.50;64.90;;;;;;5069345;28;20391;-61
2023/06/29 12:24:17;;;;;;;;;;;23.50;64.70;;;;;;5071395;28;19987;-58
2023/06/29 12:26:42;;;;;;;;;;;23.50;64.80;;;;;;5084324;28;19944;-58
2023/06/29 12:29:09;;;;;;;;;;;23.50;65.20;;;;;;5081985;28;20340;-60
2023/06/29 12:31:35;;;;;;;;;;;23.50;65.20;;;;;;5052720;28;20068;-59
2023/06/29 12:34:01;;;;;;;;;;;23.40;65.70;;;;;;5053320;28;19920;-58
2023/06/29 12:36:26;;;;;;;;;;;23.50;66.10;;;;;;5053815;28;19925;-58
2023/06/29 12:38:52;;;;;;;;;;;23.50;66.00;;;;;;5071200;28;19972;-59
2023/06/29 12:41:18;;;;;;;;;;;23.50;66.10;;;;;;5069417;28;20342;-58
2023/06/29 12:43:43;;;;;;;;;;;23.50;65.90;;;;;;5048438;28;19932;-58
2023/06/29 12:46:10;;;;;;;;;;;23.50;66.60;;;;;;5055206;28;19935;-58
2023/06/29 12:48:36;;;;;;;;;;;23.50;66.80;;;;;;5068059;28;19934;-61
2023/06/29 12:51:01;;;;;;;;;;;23.50;67.00;;;;;;5045840;28;19924;-62
2023/06/29 12:53:27;;;;;;;;;;;23.50;67.30;;;;;;5053058;28;19949;-60
2023/06/29 12:55:53;;;;;;;;;;;23.60;67.20;;;;;;5065215;28;20284;-60
2023/06/29 12:58:18;;;;;;;;;;;23.60;66.90;;;;;;5066268;28;19976;-58
2023/06/29 13:00:44;;;;;;;;;;;23.60;67.00;;;;;;5070746;28;19924;-59
2023/06/29 13:03:14;;;;;;;;;;;23.60;67.40;;;;;;5070845;28;20532;-58
2023/06/29 13:05:41;;;;;;;;;;;23.60;67.10;;;;;;5070052;28;20041;-59
2023/06/29 13:08:07;;;;;;;;;;;23.60;66.90;;;;;;5071847;28;19938;-60
2023/06/29 13:10:33;;;;;;;;;;;23.70;66.70;;;;;;5052394;28;19943;-59
2023/06/29 13:13:01;;;;;;;;;;;23.70;66.80;;;;;;5073294;28;19943;-58
2023/06/29 13:15:26;;;;;;;;;;;23.70;66.40;;;;;;5080675;28;19935;-59
2023/06/29 13:17:51;;;;;;;;;;;23.70;66.20;;;;;;5058182;28;19924;-59
2023/06/29 13:20:17;;;;;;;;;;;23.70;66.00;;;;;;5059466;28;20387;-59
2023/06/29 13:22:43;;;;;;;;;;;23.70;65.90;;;;;;5075806;28;19955;-59
2023/06/29 13:25:09;;;;;;;;;;;23.70;65.70;;;;;;5072969;28;19945;-59
2023/06/29 13:27:36;;;;;;;;;;;23.70;65.60;;;;;;5060205;28;21170;-59
2023/06/29 13:30:02;;;;;;;;;;;23.70;65.40;;;;;;5092167;28;20022;-59
2023/06/29 13:32:27;;;;;;;;;;;23.70;65.10;;;;;;5092934;28;20012;-60
2023/06/29 13:34:53;;;;;;;;;;;23.70;65.20;;;;;;5067645;28;20082;-61
2023/06/29 13:37:19;;;;;;;;;;;23.70;65.30;;;;;;5066641;28;19924;-60
2023/06/29 13:39:44;;;;;;;;;;;23.70;65.20;;;;;;5065052;28;19920;-59
2023/06/29 13:42:12;;;;;;;;;;;23.70;65.30;;;;;;5066287;28;19920;-59
2023/06/29 13:44:38;;;;;;;;;;;23.80;65.20;;;;;;5084724;28;19924;-59
2023/06/29 13:47:05;;;;;;;;;;;23.80;65.20;;;;;;5062263;28;19931;-60
2023/06/29 13:49:31;;;;;;;;;;;23.80;65.00;;;;;;5079435;28;19928;-58
2023/06/29 13:51:56;;;;;;;;;;;23.80;65.10;;;;;;5056038;28;20082;-59
2023/06/29 13:54:22;;;;;;;;;;;23.80;65.00;;;;;;5064923;28;19924;-60
2023/06/29 13:56:49;;;;;;;;;;;23.80;64.80;;;;;;5085426;28;19932;-60
2023/06/29 13:59:15;;;;;;;;;;;23.80;64.60;;;;;;5092161;28;19920;-60
2023/06/29 14:01:41;;;;;;;;;;;23.80;64.70;;;;;;5084828;28;20425;-59
2023/06/29 14:04:07;;;;;;;;;;;23.80;64.70;;;;;;5066167;28;20375;-60
2023/06/29 14:06:34;;;;;;;;;;;23.80;64.60;;;;;;5085295;28;19925;-59
2023/06/29 14:09:00;;;;;;;;;;;23.80;64.70;;;;;;5085492;28;19995;-60
2023/06/29 14:11:27;;;;;;;;;;;23.70;64.60;;;;;;5098309;28;20006;-60
2023/06/29 14:13:53;;;;;;;;;;;23.70;64.50;;;;;;5068031;28;19924;-60
2023/06/29 14:16:19;;;;;;;;;;;23.70;64.60;;;;;;5068877;28;19920;-59
2023/06/29 14:18:44;;;;;;;;;;;23.70;64.40;;;;;;5068840;28;19931;-59